createdAt,value
2019-01-05T00:03:32.031Z,1.50
2019-01-05T00:08:42.711Z,1.60
2019-01-05T00:14:03.723Z,1.60
2019-01-05T00:19:26.623Z,1.60
2019-01-05T00:24:48.063Z,1.50
2019-01-05T00:29:55.937Z,1.60
2019-01-05T00:35:04.491Z,1.60
2019-01-05T00:40:18.271Z,1.60
2019-01-05T00:45:34.959Z,1.60
2019-01-05T00:50:40.823Z,1.60
2019-01-05T00:56:03.555Z,1.60
2019-01-05T01:01:08.574Z,1.60
2019-01-05T01:06:19.607Z,1.60
2019-01-05T01:11:30.472Z,1.60
2019-01-05T01:16:51.566Z,1.60
2019-01-05T01:22:06.030Z,1.60
2019-01-05T01:27:14.063Z,1.60
2019-01-05T01:32:35.123Z,1.70
2019-01-05T01:38:18.731Z,1.70
2019-01-05T01:43:26.718Z,1.60
2019-01-05T01:48:40.811Z,1.70
2019-01-05T01:54:00.682Z,1.70
2019-01-05T01:59:23.363Z,1.70
2019-01-05T02:04:37.532Z,1.70
2019-01-05T02:09:58.396Z,1.70
2019-01-05T02:15:12.506Z,1.70
2019-01-05T02:20:44.283Z,1.70
2019-01-05T02:25:58.295Z,1.70
2019-01-05T02:31:14.851Z,1.80
2019-01-05T02:36:55.550Z,1.80
2019-01-05T02:42:37.156Z,1.80
2019-01-05T02:47:59.690Z,1.80
2019-01-05T02:53:07.774Z,1.80
2019-01-05T02:58:27.739Z,1.80
2019-01-05T03:03:58.151Z,1.80
2019-01-05T03:09:14.544Z,1.80
2019-01-05T03:14:47.590Z,1.80
2019-01-05T03:20:04.339Z,1.80
2019-01-05T03:25:48.092Z,1.80
2019-01-05T03:31:42.489Z,1.80
2019-01-05T03:37:26.350Z,1.80
2019-01-05T03:42:50.701Z,1.80
2019-01-05T03:48:27.123Z,1.80
2019-01-05T03:54:06.373Z,1.80
2019-01-05T03:59:41.524Z,1.80
2019-01-05T04:05:22.481Z,1.80
2019-01-05T04:11:19.666Z,1.80
2019-01-05T04:16:48.747Z,1.80
2019-01-05T04:22:05.517Z,1.80
2019-01-05T04:27:56.100Z,1.80
2019-01-05T04:33:29.083Z,1.80
2019-01-05T04:38:53.599Z,1.80
2019-01-05T04:44:40.448Z,1.80
2019-01-05T04:50:13.894Z,1.80
2019-01-05T04:55:42.554Z,1.80
2019-01-05T05:01:23.303Z,1.80
2019-01-05T05:06:50.443Z,1.80
2019-01-05T05:12:07.431Z,1.80
2019-01-05T05:17:45.231Z,1.80
2019-01-05T05:23:24.727Z,1.80
2019-01-05T05:29:19.450Z,1.80
2019-01-05T05:35:12.107Z,1.80
2019-01-05T05:40:32.200Z,1.80
2019-01-05T05:46:19.319Z,1.70
2019-01-05T05:51:49.676Z,1.70
2019-01-05T05:57:23.099Z,1.70
2019-01-05T06:02:50.414Z,1.70
2019-01-05T06:08:16.060Z,1.70
2019-01-05T06:14:05.928Z,1.70
2019-01-05T06:20:01.828Z,1.70
2019-01-05T06:25:30.483Z,1.70
2019-01-05T06:30:47.162Z,1.60
2019-01-05T06:36:29.316Z,1.60
2019-01-05T06:42:05.486Z,1.60
2019-01-05T06:47:43.534Z,1.60
2019-01-05T06:53:03.035Z,1.60
2019-01-05T06:58:25.943Z,1.60
2019-01-05T07:03:42.627Z,1.60
2019-01-05T07:09:35.564Z,1.60
2019-01-05T07:15:04.139Z,1.60
2019-01-05T07:20:20.819Z,1.60
2019-01-05T07:26:10.580Z,1.60
2019-01-05T07:31:43.839Z,1.50
2019-01-05T07:37:33.667Z,1.60
2019-01-05T07:42:58.328Z,1.60
2019-01-05T07:48:28.635Z,1.60
2019-01-05T07:54:21.528Z,1.60
2019-01-05T08:00:03.340Z,1.50
2019-01-05T08:05:26.199Z,1.60
2019-01-05T08:11:18.907Z,1.60
2019-01-05T08:16:53.957Z,1.60
2019-01-05T08:22:36.254Z,1.60
2019-01-05T08:28:06.867Z,1.60
2019-01-05T08:33:29.488Z,1.60
2019-01-05T08:39:22.319Z,1.60
2019-01-05T08:44:55.255Z,1.60
2019-01-05T08:50:19.420Z,1.60
2019-01-05T08:56:00.523Z,1.60
2019-01-05T09:01:53.458Z,1.60
2019-01-05T09:07:10.203Z,1.60
2019-01-05T09:12:45.182Z,1.70
2019-01-05T09:18:09.543Z,1.70
2019-01-05T09:23:55.156Z,1.70
2019-01-05T09:29:23.916Z,1.70
2019-01-05T09:35:04.674Z,1.70
2019-01-05T09:40:24.379Z,1.70
2019-01-05T09:45:41.042Z,1.80
2019-01-05T09:51:19.955Z,1.80
2019-01-05T09:57:00.371Z,1.80
2019-01-05T10:02:27.879Z,1.80
2019-01-05T10:07:47.911Z,1.90
2019-01-05T10:13:20.516Z,1.90
2019-01-05T10:18:50.197Z,1.90
2019-01-05T10:24:29.623Z,1.90
2019-01-05T10:30:10.628Z,1.90
2019-01-05T10:35:33.643Z,1.90
2019-01-05T10:41:22.978Z,1.90
2019-01-05T10:46:53.356Z,2.00
2019-01-05T10:52:36.347Z,2.00
2019-01-05T10:58:24.765Z,2.00
2019-01-05T11:04:01.870Z,2.10
2019-01-05T11:09:27.517Z,2.10
2019-01-05T11:15:17.740Z,2.10
2019-01-05T11:20:57.522Z,2.10
2019-01-05T11:26:39.387Z,2.20
2019-01-05T11:32:18.911Z,2.20
2019-01-05T11:37:38.186Z,2.20
2019-01-05T11:43:21.826Z,2.20
2019-01-05T11:48:52.543Z,2.30
2019-01-05T11:54:40.995Z,2.30
2019-01-05T12:00:17.599Z,2.30
2019-01-05T12:05:45.735Z,2.30
2019-01-05T12:10:59.448Z,2.40
2019-01-05T12:16:27.806Z,2.40
2019-01-05T12:21:47.735Z,2.40
2019-01-05T12:27:18.904Z,2.40
2019-01-05T12:33:07.477Z,2.50
2019-01-05T12:38:44.787Z,2.50
2019-01-05T12:44:13.659Z,2.50
2019-01-05T12:49:48.206Z,2.50
2019-01-05T12:55:29.266Z,2.60
2019-01-05T13:00:57.677Z,2.60
2019-01-05T13:06:11.740Z,2.60
2019-01-05T13:11:44.752Z,2.60
2019-01-05T13:17:10.650Z,2.70
2019-01-05T13:23:00.539Z,2.70
2019-01-05T13:28:27.741Z,2.70
2019-01-05T13:34:00.643Z,2.70
2019-01-05T13:39:50.418Z,2.70
2019-01-05T13:45:33.831Z,2.80
2019-01-05T13:51:02.600Z,2.80
2019-01-05T13:56:09.960Z,2.80
2019-01-05T14:01:23.796Z,2.80
2019-01-05T14:06:43.415Z,2.80
2019-01-05T14:11:48.431Z,2.80
2019-01-05T14:16:53.456Z,2.80
2019-01-05T14:22:14.251Z,2.80
2019-01-05T14:27:37.275Z,2.90
2019-01-05T14:32:45.231Z,2.80
2019-01-05T14:37:50.251Z,2.80
2019-01-05T14:43:11.676Z,2.90
2019-01-05T14:48:19.653Z,2.90
2019-01-05T14:53:24.671Z,2.90
2019-01-05T14:58:45.967Z,2.90
2019-01-05T15:04:07.247Z,2.90
2019-01-05T15:09:15.159Z,2.90
2019-01-05T15:14:20.185Z,2.90
2019-01-05T15:19:28.044Z,2.90
2019-01-05T15:24:33.078Z,2.90
2019-01-05T15:29:47.095Z,2.90
2019-01-05T15:34:57.801Z,2.90
2019-01-05T15:40:02.845Z,2.90
2019-01-05T15:45:07.926Z,3.00
2019-01-05T15:50:29.275Z,3.00
2019-01-05T15:55:50.025Z,3.00
2019-01-05T16:00:55.040Z,3.00
2019-01-05T16:06:09.164Z,2.90
2019-01-05T16:11:14.178Z,2.90
2019-01-05T16:16:19.192Z,3.00
2019-01-05T16:21:24.225Z,3.00
2019-01-05T16:26:41.370Z,3.00
2019-01-05T16:31:52.248Z,2.90
2019-01-05T16:37:06.140Z,3.00
2019-01-05T16:42:27.147Z,3.00
2019-01-05T16:47:50.278Z,3.00
2019-01-05T16:52:57.975Z,3.00
2019-01-05T16:58:03.007Z,3.00
2019-01-05T17:03:24.318Z,3.00
2019-01-05T17:08:29.348Z,3.00
2019-01-05T17:13:40.062Z,3.00
2019-01-05T17:18:45.408Z,3.10
2019-01-05T17:24:02.483Z,3.10
2019-01-05T17:29:16.258Z,3.00
2019-01-05T17:34:21.271Z,3.10
2019-01-05T17:39:29.012Z,3.10
2019-01-05T17:44:36.970Z,3.10
2019-01-05T17:49:44.451Z,3.10
2019-01-05T17:54:49.478Z,3.10
2019-01-05T18:00:06.546Z,3.10
2019-01-05T18:05:20.358Z,3.10
2019-01-05T18:10:31.091Z,3.10
2019-01-05T18:15:36.103Z,3.10
2019-01-05T18:20:41.129Z,3.10
2019-01-05T18:25:46.147Z,3.10
2019-01-05T18:31:07.222Z,3.20
2019-01-05T18:36:12.222Z,3.20
2019-01-05T18:41:17.235Z,3.20
2019-01-05T18:46:22.892Z,3.20
2019-01-05T18:51:43.019Z,3.20
2019-01-05T18:57:04.291Z,3.20
2019-01-05T19:02:25.589Z,3.30
2019-01-05T19:07:47.197Z,3.20
2019-01-05T19:13:08.468Z,3.30
2019-01-05T19:18:16.415Z,3.30
2019-01-05T19:23:21.444Z,3.30
2019-01-05T19:28:38.275Z,3.30
2019-01-05T19:33:43.287Z,3.30
2019-01-05T19:38:48.664Z,3.30
2019-01-05T19:43:53.724Z,3.30
2019-01-05T19:48:58.743Z,3.30
2019-01-05T19:54:12.588Z,3.40
2019-01-05T19:59:35.487Z,3.40
2019-01-05T20:04:52.307Z,3.40
2019-01-05T20:10:09.423Z,3.50
2019-01-05T20:15:23.527Z,3.40
2019-01-05T20:20:36.350Z,3.40
2019-01-05T20:25:43.968Z,3.40
2019-01-05T20:30:54.807Z,3.50
2019-01-05T20:35:59.827Z,3.50
2019-01-05T20:41:07.551Z,3.50
2019-01-05T20:46:24.439Z,3.50
2019-01-05T20:51:29.462Z,3.50
2019-01-05T20:56:34.496Z,3.60
2019-01-05T21:01:55.539Z,3.60
2019-01-05T21:07:06.616Z,3.50
2019-01-05T21:12:17.247Z,3.60
2019-01-05T21:17:34.085Z,3.60
2019-01-05T21:22:47.940Z,3.60
2019-01-05T21:28:07.835Z,3.60
2019-01-05T21:33:28.912Z,3.60
2019-01-05T21:38:37.048Z,3.60
2019-01-05T21:43:42.150Z,3.60
2019-01-05T21:48:50.100Z,3.60
2019-01-05T21:54:11.743Z,3.70
2019-01-05T21:59:19.632Z,3.60
2019-01-05T22:04:24.644Z,3.70
2019-01-05T22:09:41.775Z,3.70
2019-01-05T22:14:46.884Z,3.70
2019-01-05T22:19:51.906Z,3.70
2019-01-05T22:25:02.704Z,3.70
2019-01-05T22:30:15.847Z,3.70
2019-01-05T22:35:20.863Z,3.70
2019-01-05T22:40:25.880Z,3.80
2019-01-05T22:45:30.895Z,3.70
2019-01-05T22:50:35.923Z,3.80
2019-01-05T22:55:49.363Z,3.80
2019-01-05T23:01:10.473Z,3.80
2019-01-05T23:06:33.595Z,3.80
2019-01-05T23:11:44.384Z,3.80
2019-01-05T23:17:04.282Z,3.80
2019-01-05T23:22:24.229Z,3.80
2019-01-05T23:27:40.980Z,3.80
2019-01-05T23:32:51.715Z,3.80
2019-01-05T23:38:02.702Z,3.80
2019-01-05T23:43:16.464Z,3.80
2019-01-05T23:48:27.271Z,3.80
2019-01-05T23:53:40.988Z,3.80
2019-01-05T23:59:02.086Z,3.80
